Time;durP1;ratioP1;P1;durP2;ratioP2;P2;SDS_P1;SDS_P2;PMS_P1;PMS_P2;Temp;Humidity;BMP_temperature;BMP_pressure;BME280_temperature;BME280_humidity;BME280_pressure;Samples;Min_cycle;Max_cycle;Signal;HPM_P1;HPM_P2
2022/12/19 00:01:55;;;;;;;8.45;7.32;;;16.90;47.50;;;;;;5052389;28;20207;-57
2022/12/19 00:04:21;;;;;;;8.82;7.40;;;16.90;47.40;;;;;;5053356;28;20200;-58
2022/12/19 00:06:46;;;;;;;8.15;7.35;;;16.90;47.50;;;;;;5052813;28;20599;-58
2022/12/19 00:09:12;;;;;;;7.32;6.63;;;16.90;47.40;;;;;;5052458;28;20653;-58
2022/12/19 00:11:38;;;;;;;9.63;8.05;;;16.80;47.40;;;;;;5052805;28;20206;-59
2022/12/19 00:14:03;;;;;;;10.48;7.47;;;16.80;47.60;;;;;;5052919;28;20230;-59
2022/12/19 00:16:29;;;;;;;8.35;7.55;;;16.80;47.40;;;;;;5052188;28;20210;-58
2022/12/19 00:18:55;;;;;;;8.27;7.47;;;16.80;47.60;;;;;;5052736;28;20174;-58
2022/12/19 00:21:22;;;;;;;8.75;7.95;;;16.70;47.60;;;;;;5053090;28;20179;-58
2022/12/19 00:23:48;;;;;;;7.63;6.90;;;16.70;47.60;;;;;;5051883;28;20209;-58
2022/12/19 00:26:14;;;;;;;7.97;7.22;;;16.70;47.70;;;;;;5053358;28;20206;-58
2022/12/19 00:28:41;;;;;;;8.13;7.32;;;16.70;47.80;;;;;;5052733;28;20171;-57
2022/12/19 00:31:06;;;;;;;8.00;7.18;;;16.60;47.60;;;;;;5052301;28;20545;-58
2022/12/19 00:33:32;;;;;;;8.48;7.28;;;16.70;47.70;;;;;;5052672;28;20178;-59
2022/12/19 00:35:58;;;;;;;8.15;7.35;;;16.70;47.70;;;;;;5052066;28;20582;-58
2022/12/19 00:38:24;;;;;;;9.73;7.50;;;16.60;47.80;;;;;;5052755;28;20175;-58
2022/12/19 00:40:49;;;;;;;7.47;6.78;;;16.60;47.70;;;;;;5052638;28;20186;-59
2022/12/19 00:43:15;;;;;;;8.18;7.25;;;16.60;47.80;;;;;;5052224;28;20171;-58
2022/12/19 00:45:40;;;;;;;9.50;8.50;;;16.60;47.60;;;;;;5052473;28;20185;-58
2022/12/19 00:48:06;;;;;;;7.93;7.20;;;16.60;48.00;;;;;;5052870;28;20262;-58
2022/12/19 00:50:31;;;;;;;8.15;7.18;;;16.50;47.60;;;;;;5051784;28;20261;-58
2022/12/19 00:52:57;;;;;;;8.07;7.28;;;16.50;47.80;;;;;;5052617;28;20171;-58
2022/12/19 00:55:22;;;;;;;8.18;7.38;;;16.50;47.80;;;;;;5052755;28;20264;-58
2022/12/19 00:57:48;;;;;;;8.32;7.38;;;16.50;47.70;;;;;;5051807;28;20174;-58
2022/12/19 01:00:16;;;;;;;9.00;7.65;;;16.50;47.80;;;;;;5052695;28;20179;-58
2022/12/19 01:02:41;;;;;;;7.78;6.97;;;16.50;47.60;;;;;;5052361;28;20175;-58
2022/12/19 01:05:07;;;;;;;8.75;7.82;;;16.50;47.80;;;;;;5055037;28;20186;-58
2022/12/19 01:07:33;;;;;;;8.55;7.38;;;16.40;47.70;;;;;;5056123;28;20638;-58
2022/12/19 01:09:58;;;;;;;8.65;7.75;;;16.40;47.60;;;;;;5056462;28;20187;-58
2022/12/19 01:15:08;;;;;;;7.30;6.60;;;16.40;47.70;;;;;;5056453;28;20723;-58
2022/12/19 01:17:34;;;;;;;9.43;7.70;;;16.40;47.70;;;;;;5056112;28;20183;-58
2022/12/19 01:20:00;;;;;;;8.25;7.45;;;16.40;47.70;;;;;;5055486;28;20179;-58
2022/12/19 01:22:25;;;;;;;8.25;7.43;;;16.30;47.70;;;;;;5056217;28;20175;-58
2022/12/19 01:24:51;;;;;;;8.38;7.55;;;16.30;47.80;;;;;;5056118;28;20179;-58
2022/12/19 01:27:16;;;;;;;8.50;7.47;;;16.30;47.70;;;;;;5055739;28;20194;-57
2022/12/19 01:29:42;;;;;;;8.23;7.43;;;16.30;47.70;;;;;;5055935;28;20175;-58
2022/12/19 01:32:07;;;;;;;8.73;7.57;;;16.30;47.70;;;;;;5055492;28;20573;-58
2022/12/19 01:34:33;;;;;;;8.50;7.38;;;16.30;47.80;;;;;;5055725;28;20258;-58
2022/12/19 01:36:58;;;;;;;9.93;7.93;;;16.30;47.90;;;;;;5055803;28;20305;-58
2022/12/19 01:39:24;;;;;;;8.43;7.53;;;16.30;47.80;;;;;;5055519;28;20314;-58
2022/12/19 01:41:49;;;;;;;9.32;7.70;;;16.20;47.80;;;;;;5055568;28;20262;-58
2022/12/19 01:44:15;;;;;;;8.32;7.53;;;16.20;47.80;;;;;;5055983;28;20171;-59
2022/12/19 01:46:42;;;;;;;7.70;7.00;;;16.20;47.80;;;;;;5054932;28;20175;-57
2022/12/19 01:49:28;;;;;;;7.68;6.97;;;16.20;47.90;;;;;;5054583;28;20171;-58
2022/12/19 01:51:55;;;;;;;8.00;7.30;;;16.20;48.00;;;;;;5055662;28;20180;-58
2022/12/19 01:54:24;;;;;;;8.13;7.30;;;16.20;48.00;;;;;;5054177;28;20214;-56
2022/12/19 01:56:51;;;;;;;8.60;7.45;;;16.20;47.90;;;;;;5054165;28;20229;-58
2022/12/19 01:59:23;;;;;;;7.93;7.13;;;16.10;48.10;;;;;;5055521;28;20626;-57
2022/12/19 02:01:49;;;;;;;8.23;6.95;;;16.10;48.00;;;;;;5053615;28;20222;-58
2022/12/19 02:04:14;;;;;;;7.95;7.15;;;16.10;47.90;;;;;;5054284;28;20194;-58
2022/12/19 02:06:41;;;;;;;8.68;7.78;;;16.10;48.00;;;;;;5054167;28;20175;-58
2022/12/19 02:09:07;;;;;;;7.88;7.07;;;16.10;48.00;;;;;;5053681;28;20176;-58
2022/12/19 02:11:32;;;;;;;8.07;7.28;;;16.10;48.10;;;;;;5055129;28;20179;-58
2022/12/19 02:13:58;;;;;;;8.43;7.63;;;16.10;47.90;;;;;;5065241;28;20226;-59
2022/12/19 02:16:30;;;;;;;7.90;6.93;;;16.00;47.80;;;;;;5052208;28;20268;-58
2022/12/19 02:18:59;;;;;;;8.02;7.22;;;16.00;48.00;;;;;;5054164;28;20187;-58
2022/12/19 02:21:38;;;;;;;9.75;7.88;;;16.00;48.00;;;;;;5054516;28;20182;-58
2022/12/19 02:24:16;;;;;;;7.97;7.18;;;16.00;48.00;;;;;;5054110;28;20626;-58
2022/12/19 02:26:55;;;;;;;8.48;7.60;;;16.00;48.00;;;;;;5053655;28;20224;-56
2022/12/19 02:29:26;;;;;;;7.78;7.00;;;16.00;48.10;;;;;;5053312;28;20207;-58
2022/12/19 02:31:57;;;;;;;7.93;7.13;;;16.00;48.70;;;;;;5054800;28;20171;-58
2022/12/19 02:34:56;;;;;;;7.85;7.15;;;16.00;48.10;;;;;;5053929;28;20183;-58
2022/12/19 02:37:30;;;;;;;8.02;7.22;;;16.00;48.10;;;;;;5043842;28;20268;-58
2022/12/19 02:40:05;;;;;;;7.82;7.13;;;15.90;48.00;;;;;;5053828;28;20175;-58
2022/12/19 02:42:32;;;;;;;8.23;7.30;;;15.90;48.00;;;;;;5052908;28;20175;-58
2022/12/19 02:45:02;;;;;;;7.80;6.90;;;15.90;48.10;;;;;;5053516;28;20587;-58
2022/12/19 02:47:28;;;;;;;7.68;6.97;;;15.90;48.40;;;;;;5053335;28;20716;-56
2022/12/19 02:49:54;;;;;;;7.97;7.18;;;15.90;48.10;;;;;;5052398;28;20183;-57
2022/12/19 02:52:19;;;;;;;7.60;6.90;;;15.90;48.10;;;;;;5054690;28;20167;-57
2022/12/19 02:54:52;;;;;;;7.95;6.90;;;15.90;48.30;;;;;;5054488;28;20186;-57
2022/12/19 02:57:27;;;;;;;7.93;7.13;;;15.90;48.20;;;;;;5053922;28;20191;-56
2022/12/19 03:00:23;;;;;;;8.52;6.80;;;15.90;48.10;;;;;;5052963;28;20183;-58
2022/12/19 03:03:03;;;;;;;7.95;7.15;;;15.80;48.30;;;;;;5053119;28;20175;-57
2022/12/19 03:05:47;;;;;;;7.72;6.93;;;15.80;48.30;;;;;;5052593;28;20175;-58
2022/12/19 03:08:20;;;;;;;7.65;6.95;;;15.80;48.30;;;;;;5053056;28;20567;-58
2022/12/19 03:10:52;;;;;;;7.88;7.07;;;15.80;48.30;;;;;;5052309;28;20171;-58
2022/12/19 03:13:22;;;;;;;8.20;7.38;;;15.80;48.30;;;;;;5053003;28;20211;-58
2022/12/19 03:15:47;;;;;;;7.90;7.13;;;15.80;48.30;;;;;;5053707;28;20245;-58
2022/12/19 03:18:13;;;;;;;7.88;6.95;;;15.80;48.30;;;;;;5053617;28;20266;-58
2022/12/19 03:20:50;;;;;;;7.35;6.65;;;15.70;48.40;;;;;;5052641;28;20179;-58
2022/12/19 03:23:16;;;;;;;7.13;6.43;;;15.70;48.30;;;;;;5053089;28;20205;-57
2022/12/19 03:25:43;;;;;;;7.93;7.10;;;15.80;48.30;;;;;;5052020;28;20198;-57
2022/12/19 03:28:15;;;;;;;7.50;6.80;;;15.70;48.40;;;;;;5052741;28;20190;-57
2022/12/19 03:30:41;;;;;;;8.40;6.40;;;15.70;48.30;;;;;;5052451;28;20206;-56
2022/12/19 03:33:08;;;;;;;7.60;6.80;;;15.70;48.40;;;;;;5051887;28;20615;-58
2022/12/19 03:35:33;;;;;;;7.30;6.47;;;15.70;48.50;;;;;;5052065;28;20298;-58
2022/12/19 03:38:01;;;;;;;7.50;6.75;;;15.70;48.40;;;;;;5052763;28;20253;-59
2022/12/19 03:40:26;;;;;;;7.15;6.45;;;15.70;48.30;;;;;;5051740;28;20543;-58
2022/12/19 03:43:09;;;;;;;7.38;6.57;;;15.70;48.40;;;;;;5053413;28;20271;-58
2022/12/19 03:46:01;;;;;;;7.35;6.65;;;15.70;48.50;;;;;;5052294;28;20179;-58
2022/12/19 03:48:31;;;;;;;6.97;6.28;;;15.70;48.50;;;;;;5037071;28;20641;-57
2022/12/19 03:51:03;;;;;;;7.30;6.43;;;15.60;48.40;;;;;;5052526;28;20191;-59
2022/12/19 03:53:51;;;;;;;7.22;6.53;;;15.60;48.50;;;;;;5052652;28;20691;-58
2022/12/19 03:56:35;;;;;;;7.75;6.82;;;15.60;48.40;;;;;;5053355;28;20249;-58
2022/12/19 03:59:28;;;;;;;7.18;6.47;;;15.60;48.50;;;;;;5052167;28;20653;-57
2022/12/19 04:01:53;;;;;;;7.30;6.53;;;15.60;48.60;;;;;;5051128;28;20233;-57
2022/12/19 04:04:19;;;;;;;7.50;6.78;;;15.60;48.70;;;;;;5052131;28;20629;-58
2022/12/19 04:06:45;;;;;;;7.53;6.82;;;15.60;48.50;;;;;;5051772;28;20179;-58
2022/12/19 04:09:10;;;;;;;7.88;7.07;;;15.60;48.60;;;;;;5051523;28;20254;-58
2022/12/19 04:11:41;;;;;;;7.55;6.75;;;15.60;48.60;;;;;;5051955;28;20258;-58
2022/12/19 04:14:10;;;;;;;8.52;7.22;;;15.50;48.70;;;;;;5051228;28;20175;-57
2022/12/19 04:16:44;;;;;;;7.18;6.30;;;15.50;49.20;;;;;;5051682;28;20218;-57
2022/12/19 04:19:18;;;;;;;7.50;6.75;;;15.50;49.00;;;;;;5035803;28;20214;-59
2022/12/19 04:21:46;;;;;;;7.53;6.82;;;15.50;48.60;;;;;;5051071;28;20186;-62
2022/12/19 04:24:15;;;;;;;7.25;6.55;;;15.50;48.70;;;;;;5051852;28;20181;-58
2022/12/19 04:26:44;;;;;;;8.32;6.93;;;15.50;48.70;;;;;;5051422;28;20818;-57
2022/12/19 04:29:09;;;;;;;7.20;6.50;;;15.50;48.70;;;;;;5052291;28;20175;-59
2022/12/19 04:31:35;;;;;;;7.13;6.53;;;15.50;48.80;;;;;;5051420;28;20520;-57
2022/12/19 04:34:00;;;;;;;8.00;7.20;;;15.50;48.70;;;;;;5052610;28;20282;-58
2022/12/19 04:36:26;;;;;;;7.35;6.53;;;15.50;49.40;;;;;;5051961;28;20244;-58
2022/12/19 04:38:51;;;;;;;7.57;6.80;;;15.50;48.70;;;;;;5052153;28;20172;-58
2022/12/19 04:41:17;;;;;;;7.75;6.90;;;15.40;48.70;;;;;;5052706;28;20537;-58
2022/12/19 04:43:42;;;;;;;7.32;6.47;;;15.50;48.80;;;;;;5051619;28;20656;-58
2022/12/19 04:46:08;;;;;;;7.38;6.68;;;15.40;48.70;;;;;;5052682;28;20183;-58
2022/12/19 04:48:35;;;;;;;6.82;6.05;;;15.40;48.60;;;;;;5052640;28;20175;-58
2022/12/19 04:51:00;;;;;;;7.82;6.35;;;15.40;48.70;;;;;;5052077;28;20179;-57
2022/12/19 04:53:26;;;;;;;7.07;6.38;;;15.40;49.00;;;;;;5052749;28;20175;-57
2022/12/19 04:56:08;;;;;;;6.97;6.18;;;15.40;48.80;;;;;;5052400;28;20198;-59
2022/12/19 04:58:33;;;;;;;6.45;5.85;;;15.40;49.10;;;;;;5052344;28;20175;-57
2022/12/19 05:01:02;;;;;;;7.03;5.93;;;15.40;48.80;;;;;;5052550;28;20185;-58
2022/12/19 05:03:28;;;;;;;6.50;5.90;;;15.40;49.00;;;;;;5052139;28;20629;-57
2022/12/19 05:06:08;;;;;;;7.22;6.50;;;15.30;48.80;;;;;;5052456;28;20183;-59
2022/12/19 05:08:35;;;;;;;7.22;6.35;;;15.30;48.90;;;;;;5052309;28;20625;-59
2022/12/19 05:11:01;;;;;;;6.50;5.90;;;15.30;48.90;;;;;;5051807;28;20179;-59
2022/12/19 05:13:27;;;;;;;6.65;5.95;;;15.40;48.90;;;;;;5052462;28;20219;-58
2022/12/19 05:15:56;;;;;;;6.72;6.13;;;15.30;48.80;;;;;;5051984;28;20223;-59
2022/12/19 05:18:22;;;;;;;6.57;5.97;;;15.30;48.90;;;;;;5051621;28;20182;-58
2022/12/19 05:20:48;;;;;;;6.55;5.80;;;15.20;48.80;;;;;;5052256;28;20270;-58
2022/12/19 05:23:13;;;;;;;6.50;5.88;;;15.30;48.90;;;;;;5052416;28;20203;-57
2022/12/19 05:25:39;;;;;;;6.70;6.00;;;15.30;49.30;;;;;;5051484;28;20237;-57
2022/12/19 05:28:04;;;;;;;6.32;5.72;;;15.30;49.10;;;;;;5052300;28;20206;-58
2022/12/19 05:30:30;;;;;;;6.13;5.53;;;15.30;49.20;;;;;;5052537;28;20210;-57
2022/12/19 05:32:55;;;;;;;6.68;6.07;;;15.20;49.10;;;;;;5051510;28;20208;-59
2022/12/19 05:35:21;;;;;;;7.05;5.40;;;15.20;49.20;;;;;;5052204;28;20211;-59
2022/12/19 05:37:46;;;;;;;6.22;5.63;;;15.20;49.40;;;;;;5052025;28;20179;-59
2022/12/19 05:40:12;;;;;;;6.25;5.68;;;15.20;49.30;;;;;;5051571;28;20258;-59
2022/12/19 05:42:37;;;;;;;5.55;5.05;;;15.20;49.20;;;;;;5052002;28;20218;-58
2022/12/19 05:45:03;;;;;;;6.22;5.63;;;15.20;49.40;;;;;;5052360;28;20206;-59
2022/12/19 05:47:29;;;;;;;6.63;5.97;;;15.20;49.30;;;;;;5051715;28;20203;-58
2022/12/19 05:49:54;;;;;;;5.85;5.35;;;15.20;49.20;;;;;;5052095;28;20210;-59
2022/12/19 05:52:20;;;;;;;6.55;5.80;;;15.20;49.30;;;;;;5054717;28;20175;-58
2022/12/19 05:54:45;;;;;;;5.70;5.20;;;15.20;49.40;;;;;;5055635;28;20237;-58
2022/12/19 05:57:11;;;;;;;5.28;4.78;;;15.20;49.50;;;;;;5055519;28;20586;-59
2022/12/19 05:59:36;;;;;;;5.70;4.72;;;15.20;49.60;;;;;;5054592;28;20618;-57
2022/12/19 06:02:02;;;;;;;5.72;5.18;;;15.20;49.80;;;;;;5055539;28;20179;-58
2022/12/19 06:04:28;;;;;;;5.32;4.85;;;15.30;49.80;;;;;;5055640;28;20171;-57
2022/12/19 06:06:54;;;;;;;5.15;4.75;;;15.30;50.00;;;;;;5054401;28;20559;-58
2022/12/19 06:09:20;;;;;;;5.35;4.65;;;15.30;49.80;;;;;;5055467;28;20262;-58
2022/12/19 06:11:45;;;;;;;5.45;4.95;;;15.40;49.70;;;;;;5055257;28;20186;-58
2022/12/19 06:14:11;;;;;;;5.20;4.70;;;15.40;49.70;;;;;;5054655;28;20179;-58
2022/12/19 06:16:36;;;;;;;5.15;4.75;;;15.40;49.70;;;;;;5054996;28;20214;-58
2022/12/19 06:19:02;;;;;;;5.78;4.90;;;15.40;49.70;;;;;;5055260;28;20229;-59
2022/12/19 06:21:30;;;;;;;4.85;4.45;;;15.40;49.90;;;;;;5054564;28;20175;-58
2022/12/19 06:23:56;;;;;;;5.35;4.85;;;15.40;50.00;;;;;;5055205;28;20171;-59
2022/12/19 06:26:22;;;;;;;5.00;4.53;;;15.40;49.90;;;;;;5055019;28;20549;-57
2022/12/19 06:28:48;;;;;;;4.70;4.30;;;15.30;49.90;;;;;;5054143;28;20183;-57
2022/12/19 06:31:14;;;;;;;5.22;4.72;;;15.30;49.80;;;;;;5055051;28;20179;-59
2022/12/19 06:33:39;;;;;;;4.40;4.00;;;15.30;49.90;;;;;;5054900;28;20228;-59
2022/12/19 06:36:06;;;;;;;4.85;4.45;;;15.30;49.80;;;;;;5054052;28;20670;-59
2022/12/19 06:38:33;;;;;;;4.72;4.30;;;15.40;49.20;;;;;;5054625;28;20197;-59
2022/12/19 06:43:42;;;;;;;5.18;4.72;;;15.50;49.20;;;;;;5053928;28;20182;-59
2022/12/19 06:46:08;;;;;;;4.30;3.92;;;15.50;49.30;;;;;;5054765;28;20171;-60
2022/12/19 06:48:33;;;;;;;4.65;3.97;;;15.50;49.30;;;;;;5054269;28;20216;-58
2022/12/19 06:50:59;;;;;;;4.07;3.55;;;15.50;49.50;;;;;;5054302;28;20175;-59
2022/12/19 06:53:24;;;;;;;4.30;3.90;;;15.50;49.40;;;;;;5054607;28;20188;-58
2022/12/19 06:55:51;;;;;;;4.40;4.00;;;15.40;49.60;;;;;;5053454;28;20230;-58
2022/12/19 06:58:16;;;;;;;4.50;4.10;;;15.40;49.40;;;;;;5053368;28;20655;-57
2022/12/19 07:00:42;;;;;;;4.00;3.67;;;15.40;49.70;;;;;;5054076;28;20183;-56
2022/12/19 07:03:09;;;;;;;4.45;4.05;;;15.40;49.10;;;;;;5053204;28;20181;-58
2022/12/19 07:05:34;;;;;;;4.78;4.38;;;15.50;49.00;;;;;;5054160;28;20179;-58
2022/12/19 07:08:00;;;;;;;4.38;3.90;;;15.70;49.00;;;;;;5052994;28;20263;-58
2022/12/19 07:10:25;;;;;;;4.47;4.07;;;15.90;48.80;;;;;;5053393;28;20221;-57
2022/12/19 07:12:51;;;;;;;4.03;3.72;;;16.00;48.70;;;;;;5054011;28;20183;-58
2022/12/19 07:15:16;;;;;;;3.60;3.30;;;16.30;48.50;;;;;;5054040;28;20218;-57
2022/12/19 07:17:42;;;;;;;4.13;3.72;;;16.50;48.10;;;;;;5053281;28;20176;-57
2022/12/19 07:20:08;;;;;;;3.97;3.67;;;16.70;48.00;;;;;;5052865;28;20171;-58
2022/12/19 07:22:33;;;;;;;3.72;3.42;;;16.90;47.60;;;;;;5053615;28;20517;-57
2022/12/19 07:24:59;;;;;;;4.05;3.75;;;17.20;47.30;;;;;;5052280;28;20167;-58
2022/12/19 07:27:26;;;;;;;4.10;3.80;;;17.40;46.90;;;;;;5053997;28;20178;-56
2022/12/19 07:29:52;;;;;;;3.17;2.92;;;17.60;46.70;;;;;;5053757;28;20214;-57
2022/12/19 07:32:18;;;;;;;3.75;3.45;;;17.70;46.40;;;;;;5052997;28;20198;-58
2022/12/19 07:34:43;;;;;;;3.92;3.63;;;17.80;46.20;;;;;;5053567;28;20179;-58
2022/12/19 07:37:09;;;;;;;3.55;3.25;;;17.80;46.10;;;;;;5053562;28;20207;-58
2022/12/19 07:39:34;;;;;;;3.70;3.40;;;17.80;46.10;;;;;;5052861;28;20182;-58
2022/12/19 07:42:00;;;;;;;3.60;3.30;;;17.80;46.10;;;;;;5053852;28;20175;-71
2022/12/19 07:44:25;;;;;;;3.95;3.35;;;17.80;46.10;;;;;;5053672;28;20196;-75
2022/12/19 07:46:51;;;;;;;3.88;2.97;;;17.80;46.20;;;;;;5052590;28;20644;-74
2022/12/19 07:49:16;;;;;;;3.70;3.17;;;17.90;46.30;;;;;;5053450;28;20634;-73
2022/12/19 07:51:42;;;;;;;4.70;3.33;;;17.80;46.40;;;;;;5053176;28;20175;-74
2022/12/19 07:54:07;;;;;;;3.92;3.63;;;17.80;46.40;;;;;;5053071;28;20186;-76
2022/12/19 07:56:33;;;;;;;7.90;3.47;;;17.70;46.40;;;;;;5053175;28;20222;-75
2022/12/19 07:58:58;;;;;;;3.47;2.75;;;17.70;46.50;;;;;;5052955;28;20177;-75
2022/12/19 08:01:24;;;;;;;3.53;2.95;;;17.70;46.60;;;;;;5053425;28;20175;-74
2022/12/19 08:03:50;;;;;;;5.35;3.17;;;17.70;46.70;;;;;;5052897;28;20163;-74
2022/12/19 08:06:15;;;;;;;3.55;3.25;;;17.70;46.70;;;;;;5052689;28;20183;-73
2022/12/19 08:08:41;;;;;;;3.60;3.30;;;17.70;46.70;;;;;;5052817;28;20175;-74
2022/12/19 08:11:28;;;;;;;3.38;3.10;;;17.70;46.80;;;;;;5053385;28;20183;-74
2022/12/19 08:13:54;;;;;;;3.47;3.17;;;17.70;46.80;;;;;;5051488;28;20258;-75
2022/12/19 08:16:20;;;;;;;2.95;2.75;;;17.70;46.90;;;;;;5053186;28;20207;-75
2022/12/19 08:18:46;;;;;;;3.20;3.00;;;17.70;46.90;;;;;;5052909;28;20167;-76
2022/12/19 08:21:15;;;;;;;3.80;3.00;;;17.60;46.90;;;;;;5052716;28;20176;-76
2022/12/19 08:23:40;;;;;;;2.90;2.70;;;17.60;47.00;;;;;;5052869;28;20182;-75
2022/12/19 08:26:08;;;;;;;3.33;3.03;;;17.50;47.10;;;;;;5053166;28;20179;-75
2022/12/19 08:28:34;;;;;;;5.22;3.10;;;17.40;47.20;;;;;;5051886;28;20186;-74
2022/12/19 08:31:11;;;;;;;3.17;2.97;;;17.40;47.30;;;;;;5052998;28;20179;-74
2022/12/19 08:33:37;;;;;;;3.28;2.97;;;17.30;47.50;;;;;;5052668;28;20175;-75
2022/12/19 08:36:21;;;;;;;3.53;3.15;;;17.40;47.60;;;;;;5052371;28;20214;-75
2022/12/19 08:38:47;;;;;;;3.28;2.97;;;17.40;47.60;;;;;;5052639;28;20174;-75
2022/12/19 08:41:13;;;;;;;4.50;3.13;;;17.40;47.60;;;;;;5053359;28;20175;-68
2022/12/19 08:43:38;;;;;;;3.10;2.80;;;17.30;48.00;;;;;;5052554;28;20297;-72
2022/12/19 08:46:04;;;;;;;3.10;2.50;;;17.40;48.00;;;;;;5052694;28;20219;-67
2022/12/19 08:48:31;;;;;;;3.25;2.80;;;17.40;48.00;;;;;;5052126;28;20575;-72
2022/12/19 08:50:58;;;;;;;4.40;3.38;;;17.40;48.30;;;;;;5052777;28;20179;-74
2022/12/19 08:53:25;;;;;;;4.03;2.58;;;17.50;48.40;;;;;;5052725;28;20179;-75
2022/12/19 08:55:57;;;;;;;3.20;2.90;;;17.50;48.40;;;;;;5051683;28;20317;-74
2022/12/19 08:58:26;;;;;;;3.22;2.85;;;17.60;48.40;;;;;;5052643;28;20175;-72
2022/12/19 09:00:52;;;;;;;4.70;2.90;;;17.60;48.50;;;;;;5052491;28;20171;-73
2022/12/19 09:03:19;;;;;;;3.25;2.95;;;17.60;48.50;;;;;;5051898;28;20179;-66
2022/12/19 09:05:44;;;;;;;3.50;2.90;;;17.60;48.60;;;;;;5052372;28;20236;-72
2022/12/19 09:08:10;;;;;;;3.05;2.67;;;17.60;48.70;;;;;;5052385;28;20187;-73
2022/12/19 09:10:36;;;;;;;4.40;2.40;;;17.60;48.60;;;;;;5051464;28;20262;-72
2022/12/19 09:13:02;;;;;;;3.00;2.67;;;17.60;48.50;;;;;;5052539;28;20175;-72
2022/12/19 09:15:29;;;;;;;2.58;2.38;;;17.60;48.60;;;;;;5052297;28;20314;-72
2022/12/19 09:17:54;;;;;;;3.88;2.58;;;17.50;48.70;;;;;;5051463;28;20625;-74
2022/12/19 09:20:20;;;;;;;4.28;3.20;;;17.50;48.60;;;;;;5052537;28;20186;-73
2022/12/19 09:22:45;;;;;;;3.05;2.38;;;17.60;48.60;;;;;;5051912;28;20224;-72
2022/12/19 09:25:11;;;;;;;2.50;2.30;;;17.70;48.50;;;;;;5061943;28;20250;-75
2022/12/19 09:27:36;;;;;;;3.88;2.30;;;17.60;48.40;;;;;;5065415;28;20167;-71
2022/12/19 09:30:02;;;;;;;3.00;2.53;;;17.60;48.50;;;;;;5076338;28;20170;-68
2022/12/19 09:32:29;;;;;;;3.15;2.85;;;17.50;48.60;;;;;;5059747;28;20171;-67
2022/12/19 09:34:54;;;;;;;3.78;2.75;;;17.50;48.70;;;;;;5055669;28;20297;-67
2022/12/19 09:37:20;;;;;;;2.72;2.53;;;17.50;48.80;;;;;;5055967;28;20305;-67
2022/12/19 09:39:48;;;;;;;4.28;2.60;;;17.40;48.90;;;;;;5054827;28;20186;-67
2022/12/19 09:42:47;;;;;;;3.05;2.67;;;17.30;49.10;;;;;;5055920;28;20178;-68
2022/12/19 09:45:29;;;;;;;5.03;2.92;;;17.20;49.30;;;;;;5055431;28;20175;-67
2022/12/19 09:47:56;;;;;;;4.97;2.40;;;17.20;49.60;;;;;;5055393;28;20645;-66
2022/12/19 09:50:29;;;;;;;4.22;2.65;;;17.10;49.70;;;;;;5054453;28;20179;-68
2022/12/19 09:52:58;;;;;;;4.20;2.30;;;17.10;49.80;;;;;;5053575;28;20175;-67
2022/12/19 09:55:34;;;;;;;4.60;2.70;;;17.10;50.00;;;;;;5054456;28;20179;-67
2022/12/19 09:58:27;;;;;;;3.65;2.70;;;17.10;50.00;;;;;;5068682;28;20210;-69
2022/12/19 10:00:56;;;;;;;3.17;2.30;;;17.10;50.10;;;;;;5074213;28;20170;-67
2022/12/19 10:03:27;;;;;;;4.40;2.03;;;17.10;50.10;;;;;;5074532;28;20182;-67
2022/12/19 10:05:54;;;;;;;2.22;2.03;;;17.10;50.10;;;;;;5073427;28;20174;-68
2022/12/19 10:08:39;;;;;;;2.65;2.45;;;17.10;50.10;;;;;;5075562;28;20179;-68
2022/12/19 10:11:13;;;;;;;2.72;2.17;;;17.10;50.00;;;;;;5074287;28;20191;-67
2022/12/19 10:14:05;;;;;;;3.17;2.45;;;17.20;50.00;;;;;;5074268;28;20624;-68
2022/12/19 10:16:43;;;;;;;2.90;2.30;;;17.20;50.00;;;;;;5072166;28;20704;-68
2022/12/19 10:19:11;;;;;;;2.60;2.40;;;17.20;50.00;;;;;;5074148;28;20190;-67
2022/12/19 10:21:55;;;;;;;2.97;2.28;;;17.30;50.00;;;;;;5073013;28;20174;-73
2022/12/19 10:24:29;;;;;;;2.15;1.98;;;17.30;49.90;;;;;;5075056;28;20412;-67
2022/12/19 10:27:17;;;;;;;3.05;2.28;;;17.40;49.90;;;;;;5073076;28;20286;-67
2022/12/19 10:30:00;;;;;;;2.75;2.50;;;17.40;49.90;;;;;;5058918;28;20205;-69
2022/12/19 10:32:38;;;;;;;2.22;2.03;;;17.50;49.80;;;;;;5058452;28;20175;-69
2022/12/19 10:35:14;;;;;;;3.90;2.60;;;17.50;49.80;;;;;;5054208;28;20262;-68
2022/12/19 10:37:52;;;;;;;3.85;2.30;;;17.50;49.80;;;;;;5052733;28;20194;-71
2022/12/19 10:40:31;;;;;;;2.90;2.45;;;17.50;49.80;;;;;;5037636;28;20178;-68
2022/12/19 10:43:15;;;;;;;2.53;2.30;;;17.60;49.80;;;;;;5054227;28;20257;-68
2022/12/19 10:45:45;;;;;;;2.88;2.42;;;17.60;49.80;;;;;;5053683;28;20241;-69
2022/12/19 10:48:15;;;;;;;2.50;2.30;;;17.70;49.70;;;;;;5036540;28;20183;-69
2022/12/19 10:50:41;;;;;;;2.60;2.17;;;17.60;49.50;;;;;;5053274;28;20350;-68
2022/12/19 10:53:07;;;;;;;2.38;2.17;;;17.70;49.60;;;;;;5054775;28;20224;-69
2022/12/19 10:55:52;;;;;;;2.95;2.10;;;17.70;49.50;;;;;;5053472;28;20295;-69
2022/12/19 10:58:22;;;;;;;3.53;2.22;;;17.70;49.50;;;;;;5054503;28;20210;-69
2022/12/19 11:01:00;;;;;;;2.33;1.90;;;17.70;49.40;;;;;;5054152;28;20167;-68
2022/12/19 11:03:27;;;;;;;2.90;2.20;;;17.70;49.40;;;;;;5053638;28;20233;-68
2022/12/19 11:05:53;;;;;;;3.72;2.00;;;17.70;49.40;;;;;;5052812;28;20182;-70
2022/12/19 11:08:27;;;;;;;2.30;2.10;;;17.70;49.40;;;;;;5054437;28;20175;-68
2022/12/19 11:11:08;;;;;;;2.22;2.00;;;17.70;49.40;;;;;;5053247;28;20703;-68
2022/12/19 11:13:34;;;;;;;4.47;2.22;;;17.70;49.40;;;;;;5052940;28;20267;-69
2022/12/19 11:16:01;;;;;;;4.40;1.98;;;17.70;49.40;;;;;;5053014;28;20313;-69
2022/12/19 11:18:52;;;;;;;3.03;2.20;;;17.70;49.50;;;;;;5054034;28;20182;-69
2022/12/19 11:21:19;;;;;;;2.63;2.33;;;17.70;49.40;;;;;;5052884;28;20183;-69
2022/12/19 11:24:01;;;;;;;2.05;1.77;;;17.70;49.50;;;;;;5051814;28;20175;-69
2022/12/19 11:26:29;;;;;;;2.20;1.55;;;17.70;49.60;;;;;;5054183;28;20186;-70
2022/12/19 11:28:56;;;;;;;2.20;2.00;;;17.60;49.70;;;;;;5053770;28;20179;-69
2022/12/19 11:31:22;;;;;;;2.30;1.73;;;17.40;49.70;;;;;;5043289;28;20174;-68
2022/12/19 11:34:01;;;;;;;1.70;1.60;;;17.40;50.00;;;;;;5072338;28;20170;-69
2022/12/19 11:36:37;;;;;;;2.83;1.80;;;17.30;50.00;;;;;;5073820;28;20244;-69
2022/12/19 11:39:02;;;;;;;2.63;2.10;;;17.30;50.20;;;;;;5072158;28;20175;-70
2022/12/19 11:41:38;;;;;;;2.08;1.85;;;17.20;50.40;;;;;;5072608;28;20625;-69
2022/12/19 11:44:09;;;;;;;1.73;1.63;;;17.20;50.40;;;;;;5072694;28;20182;-68
2022/12/19 11:46:44;;;;;;;2.08;1.70;;;17.30;50.50;;;;;;5073125;28;20174;-68
2022/12/19 11:49:36;;;;;;;2.13;1.90;;;17.20;50.40;;;;;;5056423;28;20202;-68
2022/12/19 11:52:35;;;;;;;3.67;2.53;;;17.30;50.50;;;;;;5071711;28;20186;-75
2022/12/19 11:55:07;;;;;;;2.47;1.77;;;17.30;50.40;;;;;;5072652;28;20253;-67
2022/12/19 11:57:32;;;;;;;2.40;1.77;;;17.40;50.30;;;;;;5055301;28;20218;-67
2022/12/19 11:59:58;;;;;;;2.72;2.20;;;17.50;50.30;;;;;;5074803;28;20177;-70
2022/12/19 12:02:45;;;;;;;3.92;1.75;;;17.60;50.30;;;;;;5055479;28;20192;-72
2022/12/19 12:05:35;;;;;;;2.53;1.77;;;17.80;49.90;;;;;;5072510;28;20308;-75
2022/12/19 12:08:28;;;;;;;2.22;1.75;;;18.00;49.50;;;;;;5073134;28;20680;-74
2022/12/19 12:11:07;;;;;;;2.80;1.77;;;18.30;49.20;;;;;;5073018;28;20261;-74
2022/12/19 12:13:35;;;;;;;3.13;1.90;;;18.50;48.80;;;;;;5071113;28;20535;-73
2022/12/19 12:16:07;;;;;;;2.85;1.92;;;18.70;48.50;;;;;;5072829;28;20226;-75
2022/12/19 12:18:57;;;;;;;2.80;1.80;;;18.80;48.30;;;;;;5072842;28;20724;-75
2022/12/19 12:21:24;;;;;;;1.60;1.50;;;18.90;48.20;;;;;;5071400;28;20208;-73
2022/12/19 12:24:02;;;;;;;3.13;2.20;;;18.90;48.10;;;;;;5072736;28;20174;-73
2022/12/19 12:26:42;;;;;;;3.25;1.90;;;18.90;48.20;;;;;;5072290;28;21037;-74
2022/12/19 12:29:30;;;;;;;3.35;1.80;;;18.90;48.30;;;;;;5073403;28;20182;-75
2022/12/19 12:32:14;;;;;;;1.88;1.50;;;18.90;48.20;;;;;;5059391;28;20178;-75
2022/12/19 12:34:45;;;;;;;1.58;1.40;;;18.80;48.30;;;;;;5052017;28;20171;-74
2022/12/19 12:37:50;;;;;;;1.63;1.52;;;18.80;48.30;;;;;;5051507;28;20317;-69
2022/12/19 12:40:56;;;;;;;1.70;1.60;;;18.80;48.40;;;;;;5040846;28;20231;-75
2022/12/19 12:43:34;;;;;;;2.75;1.98;;;18.60;48.60;;;;;;5051791;28;20178;-72
2022/12/19 12:46:02;;;;;;;4.15;1.98;;;18.70;48.60;;;;;;5040319;28;20254;-75
2022/12/19 12:48:37;;;;;;;5.07;1.98;;;18.60;48.70;;;;;;5037724;28;20179;-73
2022/12/19 12:51:02;;;;;;;3.78;2.00;;;18.70;48.70;;;;;;5036070;28;20605;-73
2022/12/19 12:53:33;;;;;;;2.67;1.63;;;18.70;49.30;;;;;;5052791;28;20250;-73
2022/12/19 12:55:59;;;;;;;2.63;1.60;;;18.80;48.80;;;;;;5034324;28;20591;-73
2022/12/19 12:58:50;;;;;;;1.95;1.50;;;18.80;48.70;;;;;;5051498;28;20633;-73
2022/12/19 13:01:28;;;;;;;1.75;1.65;;;19.00;48.40;;;;;;5056250;28;20165;-73
2022/12/19 13:03:58;;;;;;;2.67;1.63;;;19.10;48.50;;;;;;5056400;28;20182;-73
2022/12/19 13:06:32;;;;;;;2.75;1.80;;;19.30;48.30;;;;;;5056584;28;20219;-71
2022/12/19 13:09:07;;;;;;;2.10;1.70;;;19.40;48.10;;;;;;5054976;28;20181;-71